Time;durP1;ratioP1;P1;durP2;ratioP2;P2;SDS_P1;SDS_P2;PMS_P1;PMS_P2;Temp;Humidity;BMP_temperature;BMP_pressure;BME280_temperature;BME280_humidity;BME280_pressure;Samples;Min_cycle;Max_cycle;Signal;HPM_P1;HPM_P2
2021/05/18 00:00:43;;;;;;;5.53;3.92;;;;;;;14.27;71.94;98090.75;1732314;82;21059;-41
2021/05/18 00:03:10;;;;;;;4.45;4.08;;;;;;;14.27;71.92;98089.39;1764329;80;21598;-41
2021/05/18 00:05:40;;;;;;;4.67;4.28;;;;;;;14.23;71.99;98088.65;1704120;83;21739;-41
2021/05/18 00:08:08;;;;;;;5.90;4.20;;;;;;;14.20;72.02;98086.77;1771698;81;21031;-41
2021/05/18 00:13:32;;;;;;;5.85;5.25;;;;;;;14.11;72.10;98082.44;1771514;81;21605;-41
2021/05/18 00:15:59;;;;;;;7.30;5.10;;;;;;;14.02;72.44;98078.10;1758778;80;21047;-41
2021/05/18 00:18:26;;;;;;;6.08;4.80;;;;;;;13.95;72.71;98080.92;1744895;80;21064;-41
2021/05/18 00:20:55;;;;;;;5.70;5.20;;;;;;;13.92;72.76;98074.95;1732293;82;20998;-41
2021/05/18 00:23:21;;;;;;;7.40;5.25;;;;;;;13.95;72.67;98075.47;1742870;80;21101;-41
2021/05/18 00:25:48;;;;;;;15.50;5.55;;;;;;;13.94;72.72;98077.42;1780756;80;21671;-41
2021/05/18 00:28:15;;;;;;;11.75;5.28;;;;;;;13.92;72.73;98070.86;1781635;80;20979;-41
2021/05/18 00:30:42;;;;;;;6.83;5.00;;;;;;;13.90;72.65;98082.75;1779699;80;21087;-41
2021/05/18 00:33:19;;;;;;;5.28;4.47;;;;;;;13.90;72.61;98078.66;1769796;80;20995;-41
2021/05/18 00:35:46;;;;;;;11.78;4.97;;;;;;;13.91;72.55;98072.81;1777783;80;21095;-41
2021/05/18 00:38:14;;;;;;;6.10;5.50;;;;;;;13.86;72.90;98069.19;1780224;80;20979;-40
2021/05/18 00:40:42;;;;;;;5.90;5.35;;;;;;;13.82;73.07;98063.03;1781625;80;21524;-41
2021/05/18 00:43:11;;;;;;;5.45;4.95;;;;;;;13.79;73.37;98062.50;1760602;80;21070;-41
2021/05/18 00:45:42;;;;;;;5.80;5.30;;;;;;;13.85;73.40;98064.14;1750448;82;20989;-40
2021/05/18 00:48:11;;;;;;;6.47;5.87;;;;;;;13.85;73.47;98064.14;1762434;80;21039;-41
2021/05/18 00:50:42;;;;;;;6.67;4.97;;;;;;;13.82;73.58;98065.75;1779791;80;20948;-41
2021/05/18 00:53:09;;;;;;;6.47;5.87;;;;;;;13.82;73.74;98066.34;1754347;80;21632;-41
2021/05/18 00:55:42;;;;;;;9.38;8.20;;;;;;;13.85;73.87;98056.74;1778947;80;21095;-41
2021/05/18 00:58:26;;;;;;;10.15;9.15;;;;;;;13.88;74.16;98058.66;1779649;80;21026;-41
2021/05/18 01:01:20;;;;;;;13.70;9.48;;;;;;;13.87;74.39;98057.11;1777013;80;21026;-41
2021/05/18 01:03:51;;;;;;;11.50;9.35;;;;;;;13.91;74.50;98059.78;1761591;80;21011;-41
2021/05/18 01:06:29;;;;;;;10.55;9.45;;;;;;;13.99;74.60;98046.83;1755450;80;21027;-41
2021/05/18 01:09:08;;;;;;;15.53;10.88;;;;;;;14.03;74.56;98041.50;1779465;80;21124;-41
2021/05/18 01:11:32;;;;;;;11.45;9.70;;;;;;;14.05;74.41;98035.62;1759780;80;21042;-41
2021/05/18 01:14:07;;;;;;;14.85;10.05;;;;;;;14.10;74.16;98040.59;1761055;79;20904;-41
2021/05/18 01:16:35;;;;;;;13.78;10.78;;;;;;;14.15;73.94;98036.81;1774169;80;21017;-41
2021/05/18 01:19:04;;;;;;;20.65;10.95;;;;;;;14.14;73.83;98033.90;1719002;82;21087;-41
2021/05/18 01:21:32;;;;;;;26.17;11.25;;;;;;;14.13;73.69;98037.84;1742905;80;20980;-41
2021/05/18 01:23:59;;;;;;;21.20;10.53;;;;;;;14.11;73.66;98038.83;1748026;80;21686;-42
2021/05/18 01:26:29;;;;;;;36.90;11.75;;;;;;;14.07;73.74;98036.76;1742403;80;20960;-41
2021/05/18 01:28:55;;;;;;;66.20;11.90;;;;;;;14.06;73.80;98034.44;1754598;80;21601;-41
2021/05/18 01:31:24;;;;;;;26.42;11.10;;;;;;;13.98;74.11;98033.80;1705707;84;21057;-41
2021/05/18 01:33:53;;;;;;;28.07;10.32;;;;;;;13.93;74.33;98038.35;1767984;80;21764;-41
2021/05/18 01:36:22;;;;;;;29.57;9.43;;;;;;;13.92;74.42;98028.63;1726101;82;21296;-41
2021/05/18 01:39:12;;;;;;;63.60;10.50;;;;;;;13.92;74.47;98036.22;1752181;80;21573;-41
2021/05/18 01:44:18;;;;;;;20.17;8.33;;;;;;;13.81;74.79;98035.60;1748998;80;21596;-41
2021/05/18 01:46:46;;;;;;;29.02;8.93;;;;;;;13.80;74.81;98034.05;1742662;80;21086;-41
2021/05/18 01:49:16;;;;;;;40.75;11.18;;;;;;;13.77;74.94;98030.03;1758475;80;20956;-41
2021/05/18 01:51:48;;;;;;;22.50;12.20;;;;;;;13.72;75.29;98020.96;1742728;80;20980;-41
2021/05/18 01:54:25;;;;;;;39.85;12.13;;;;;;;13.68;75.58;98017.53;1759580;80;21621;-41
2021/05/18 01:57:15;;;;;;;53.92;11.53;;;;;;;13.66;75.68;98020.66;1763090;80;21106;-41
2021/05/18 01:59:24;;;;;;;38.13;11.85;;;;;;;13.63;75.84;98019.35;1742771;80;21573;-41
2021/05/18 02:01:57;;;;;;;27.80;9.95;;;;;;;13.53;75.92;98017.55;1732406;82;21561;-41
2021/05/18 02:04:31;;;;;;;20.72;9.30;;;;;;;13.45;76.12;98010.86;1762837;80;21475;-41
2021/05/18 02:07:14;;;;;;;26.65;9.73;;;;;;;13.43;76.18;98011.86;1742440;82;20993;-42
2021/05/18 02:09:42;;;;;;;9.78;8.78;;;;;;;13.42;76.25;98010.31;1762641;80;20928;-41
2021/05/18 02:12:09;;;;;;;10.45;8.53;;;;;;;13.43;76.12;98009.13;1742370;82;21061;-41
2021/05/18 02:14:39;;;;;;;14.20;8.75;;;;;;;13.54;75.83;98011.70;1755243;80;21578;-41
2021/05/18 02:17:27;;;;;;;;;;;;;;;13.66;75.36;98017.16;1743649;82;21022;-41
2021/05/18 02:25:10;;;;;;;8.20;7.40;;;;;;;13.77;74.48;98005.52;1777214;80;21070;-41
2021/05/18 02:27:56;;;;;;;8.88;7.97;;;;;;;13.91;73.92;98010.73;1773119;80;21937;-41
2021/05/18 02:30:23;;;;;;;8.68;7.85;;;;;;;13.97;73.56;98007.73;1747127;80;20944;-41
2021/05/18 02:32:50;;;;;;;9.68;8.78;;;;;;;14.03;73.27;98002.58;1707713;83;21096;-41
2021/05/18 02:35:22;;;;;;;9.55;8.65;;;;;;;14.06;72.93;98005.23;1771035;80;21051;-41
2021/05/18 02:37:50;;;;;;;7.92;7.22;;;;;;;14.05;72.68;98005.64;1776374;80;21741;-41
2021/05/18 02:40:22;;;;;;;8.30;7.60;;;;;;;14.04;72.54;98006.23;1775124;80;20947;-41
2021/05/18 02:42:49;;;;;;;10.85;8.60;;;;;;;14.10;72.15;98007.30;1681722;84;21628;-41
2021/05/18 02:50:38;;;;;;;9.20;8.40;;;;;;;14.18;71.70;98003.30;1755307;80;21053;-41
2021/05/18 02:53:06;;;;;;;8.63;7.90;;;;;;;14.20;71.72;98006.94;1706872;83;20960;-41
2021/05/18 02:56:25;;;;;;;9.58;8.68;;;;;;;14.21;71.51;98017.44;1747770;82;21002;-41
2021/05/18 02:58:03;;;;;;;10.38;9.43;;;;;;;14.20;71.36;98021.34;1738305;80;21051;-41
2021/05/18 03:00:30;;;;;;;11.80;10.70;;;;;;;14.15;71.57;98019.09;1773187;80;21051;-42
2021/05/18 03:02:57;;;;;;;11.30;10.18;;;;;;;14.14;71.59;98011.33;1686208;82;21828;-41
2021/05/18 03:05:25;;;;;;;10.60;9.50;;;;;;;14.10;71.55;98016.84;1713773;83;20974;-41
2021/05/18 03:07:53;;;;;;;12.07;10.68;;;;;;;14.07;71.54;98014.95;1708143;84;21668;-41
2021/05/18 03:10:20;;;;;;;14.20;10.80;;;;;;;14.05;71.62;98022.77;1775880;80;21047;-41
2021/05/18 03:12:48;;;;;;;15.75;10.75;;;;;;;14.01;71.77;98016.61;1772762;80;21586;-41
2021/05/18 03:15:16;;;;;;;10.43;8.10;;;;;;;13.95;71.81;98019.62;1708347;83;21031;-41
2021/05/18 03:17:44;;;;;;;11.40;10.25;;;;;;;13.87;72.02;98018.20;1774961;80;21589;-41
2021/05/18 03:20:15;;;;;;;10.45;9.50;;;;;;;13.81;72.20;98019.84;1778465;80;21003;-42
2021/05/18 03:22:43;;;;;;;13.15;9.70;;;;;;;13.76;72.51;98017.59;1777657;79;20996;-42
2021/05/18 03:25:12;;;;;;;9.50;8.10;;;;;;;13.70;72.77;98020.63;1773997;80;20946;-41
2021/05/18 03:27:39;;;;;;;9.88;8.60;;;;;;;13.68;72.91;98022.97;1752927;80;21107;-41
2021/05/18 03:30:21;;;;;;;8.45;7.75;;;;;;;13.70;72.99;98028.80;1763698;80;20983;-41
2021/05/18 03:35:25;;;;;;;8.18;7.47;;;;;;;13.66;73.55;98033.50;1767171;80;21629;-41
2021/05/18 03:37:54;;;;;;;8.70;7.95;;;;;;;13.61;73.97;98035.32;1763829;80;21079;-41
2021/05/18 03:40:21;;;;;;;9.90;8.90;;;;;;;13.29;74.23;97988.92;1758503;80;21620;-41
2021/05/18 03:42:53;;;;;;;10.90;9.28;;;;;;;13.67;74.55;98040.49;1760087;80;20975;-41
2021/05/18 03:45:20;;;;;;;9.05;8.25;;;;;;;13.72;74.69;98035.94;1772770;80;21556;-41
2021/05/18 03:53:27;;;;;;;8.03;7.33;;;;;;;13.93;74.99;98045.94;1767484;80;21407;-41
2021/05/18 03:58:55;;;;;;;9.10;8.20;;;;;;;14.12;74.99;98049.91;1760669;80;20947;-41
2021/05/18 04:17:51;;;;;;;7.40;6.70;;;;;;;14.66;75.16;98060.70;1769852;80;21652;-41
2021/05/18 04:20:26;;;;;;;8.57;7.77;;;;;;;14.77;75.26;98058.52;1740253;82;21112;-41
2021/05/18 04:25:26;;;;;;;9.33;8.43;;;;;;;14.99;75.31;98054.80;1671669;83;21239;-42
2021/05/18 04:38:59;;;;;;;8.15;7.33;;;;;;;15.52;74.21;98049.63;1703684;84;21020;-42
2021/05/18 04:52:08;;;;;;;8.55;7.78;;;;;;;15.89;72.79;98067.52;1717137;80;21026;-41
2021/05/18 04:55:09;;;;;;;10.90;8.30;;;;;;;15.94;72.61;98058.22;1758017;80;21031;-42
2021/05/18 05:00:04;;;;;;;10.25;9.20;;;;;;;16.08;72.43;98055.14;1754548;80;21106;-41
2021/05/18 05:08:02;;;;;;;10.30;8.53;;;;;;;16.24;72.34;98060.44;1760574;80;20999;-41
2021/05/18 05:15:38;;;;;;;10.88;9.25;;;;;;;16.43;71.57;98055.47;1716358;81;21124;-42
2021/05/18 05:18:05;;;;;;;9.28;8.30;;;;;;;16.45;71.64;98046.24;1713269;82;21142;-42
2021/05/18 05:20:33;;;;;;;9.08;8.18;;;;;;;16.56;71.53;98049.45;1732561;82;20946;-41
2021/05/18 05:23:00;;;;;;;10.65;8.53;;;;;;;16.72;71.07;98045.94;1725807;82;21006;-42
2021/05/18 05:25:26;;;;;;;10.58;9.58;;;;;;;16.81;70.83;98055.06;1722303;82;21097;-42
2021/05/18 05:27:53;;;;;;;9.98;8.98;;;;;;;16.89;70.84;98055.66;1718895;82;21016;-42
2021/05/18 05:30:21;;;;;;;10.43;9.43;;;;;;;16.95;70.59;98060.15;1717145;82;21689;-41
2021/05/18 05:32:48;;;;;;;9.85;8.85;;;;;;;16.97;70.24;98052.88;1700579;82;21047;-42
2021/05/18 05:35:15;;;;;;;10.35;9.35;;;;;;;16.95;70.24;98058.78;1728189;82;21025;-41
2021/05/18 05:37:42;;;;;;;12.98;10.03;;;;;;;16.95;70.38;98060.15;1695744;82;21136;-42
2021/05/18 05:40:10;;;;;;;10.45;9.00;;;;;;;16.91;70.52;98058.12;1697975;83;21072;-41
2021/05/18 05:42:37;;;;;;;9.58;7.65;;;;;;;16.90;70.34;98057.94;1697825;83;21133;-42
2021/05/18 05:45:06;;;;;;;9.75;8.95;;;;;;;16.98;70.39;98051.69;1703281;83;21106;-41
2021/05/18 05:47:33;;;;;;;10.43;9.20;;;;;;;17.10;70.04;98042.73;1696931;83;21049;-42
2021/05/18 05:50:00;;;;;;;12.75;10.03;;;;;;;17.15;69.98;98040.05;1694818;83;21103;-42
2021/05/18 05:52:27;;;;;;;11.48;9.60;;;;;;;17.21;70.15;98038.32;1694909;83;21049;-42
2021/05/18 05:54:55;;;;;;;9.83;8.05;;;;;;;17.29;70.02;98036.90;1697233;83;21060;-42
2021/05/18 05:57:21;;;;;;;9.65;8.75;;;;;;;17.40;69.18;98034.63;1695139;83;21051;-42
2021/05/18 05:59:48;;;;;;;9.30;8.40;;;;;;;17.55;68.80;98037.11;1697341;83;21104;-42
2021/05/18 06:02:14;;;;;;;10.13;9.05;;;;;;;17.65;68.63;98029.19;1685344;83;21024;-42
2021/05/18 06:04:41;;;;;;;10.08;9.13;;;;;;;17.74;68.61;98027.16;1688988;83;21544;-42
2021/05/18 06:07:08;;;;;;;10.90;9.90;;;;;;;17.81;68.39;98026.31;1697986;83;21090;-42
2021/05/18 06:09:37;;;;;;;9.38;8.48;;;;;;;17.81;68.17;98024.95;1684937;83;20996;-42
2021/05/18 06:12:31;;;;;;;9.73;8.73;;;;;;;17.86;68.46;98027.00;1721515;82;21089;-42
2021/05/18 06:17:50;;;;;;;11.33;10.05;;;;;;;18.03;67.98;98022.91;1702653;82;21182;-42
2021/05/18 06:50:28;;;;;;;8.30;7.50;;;;;;;19.37;65.09;98001.69;1722044;82;21012;-42
2021/05/18 06:52:45;;;;;;;8.20;7.33;;;;;;;19.58;64.23;97997.39;1721268;82;21095;-42
2021/05/18 06:55:16;;;;;;;7.40;6.67;;;;;;;19.75;64.58;98000.67;1721170;82;21075;-42
2021/05/18 06:57:46;;;;;;;7.30;6.58;;;;;;;19.92;64.07;98006.83;1729740;82;21015;-42
2021/05/18 07:00:22;;;;;;;9.00;5.72;;;;;;;20.06;63.55;97998.59;1706480;82;21208;-42
2021/05/18 07:02:44;;;;;;;7.12;5.05;;;;;;;20.19;62.60;97988.83;1702099;83;21062;-42
2021/05/18 07:08:29;;;;;;;8.13;5.55;;;;;;;20.29;62.84;97987.01;1688702;84;21158;-42
2021/05/18 07:10:35;;;;;;;9.68;5.17;;;;;;;20.31;61.36;97983.23;1698974;84;20987;-42
2021/05/18 07:13:02;;;;;;;5.72;5.05;;;;;;;20.34;61.16;97985.66;1715334;82;21039;-42
2021/05/18 07:15:29;;;;;;;6.28;5.40;;;;;;;20.31;61.94;97981.85;1713101;82;21547;-42
2021/05/18 07:17:56;;;;;;;7.15;4.95;;;;;;;20.32;62.33;97988.13;1709950;82;21098;-42
2021/05/18 07:20:25;;;;;;;7.72;5.53;;;;;;;20.32;62.04;97988.13;1682278;83;21089;-42
2021/05/18 07:22:55;;;;;;;5.35;3.77;;;;;;;20.36;61.98;97988.13;1682695;83;21011;-42
2021/05/18 07:25:20;;;;;;;4.72;3.95;;;;;;;20.45;59.60;97988.73;1683127;84;21019;-42
2021/05/18 07:27:47;;;;;;;5.80;3.75;;;;;;;20.51;58.76;97988.89;1699641;83;20987;-42
2021/05/18 07:30:15;;;;;;;6.28;4.40;;;;;;;20.59;58.82;97984.59;1724437;81;21075;-42
2021/05/18 07:33:47;;;;;;;4.70;2.92;;;;;;;20.73;59.58;97980.61;1766804;79;22667;-41
2021/05/18 07:36:14;;;;;;;6.35;2.70;;;;;;;20.75;57.67;97976.03;1722178;82;20940;-42
2021/05/18 07:38:42;;;;;;;4.28;2.80;;;;;;;20.80;57.54;97978.17;1733837;82;21584;-42
2021/05/18 07:41:09;;;;;;;3.72;2.45;;;;;;;20.91;57.53;97976.32;1745230;82;21004;-41
2021/05/18 07:43:36;;;;;;;4.72;3.40;;;;;;;21.03;56.90;97974.75;1724012;82;21648;-41
2021/05/18 07:46:03;;;;;;;4.92;4.10;;;;;;;21.21;56.65;97974.73;1719257;82;21663;-41
2021/05/18 07:49:18;;;;;;;6.03;4.00;;;;;;;21.42;55.90;97972.98;1724644;82;21652;-42
2021/05/18 07:51:22;;;;;;;4.17;3.35;;;;;;;21.56;55.73;97986.70;1703689;82;21935;-41
2021/05/18 08:07:12;;;;;;;5.80;4.55;;;;;;;21.28;56.57;97990.80;1721493;82;20967;-42
2021/05/18 08:09:51;;;;;;;7.03;4.70;;;;;;;21.05;57.98;97991.60;1731321;82;20924;-42
2021/05/18 08:12:18;;;;;;;7.22;5.50;;;;;;;20.92;58.16;97990.99;1721988;82;20971;-42
2021/05/18 08:14:55;;;;;;;8.55;5.58;;;;;;;20.77;58.88;97990.09;1732015;82;20999;-42
2021/05/18 08:17:18;;;;;;;10.60;5.90;;;;;;;20.72;59.61;97990.73;1737804;82;21094;-42
2021/05/18 10:35:45;;;;;;;36.23;32.40;;;;;;;18.14;73.08;97895.19;1719056;82;21083;-42
2021/05/18 10:38:12;;;;;;;23.62;19.00;;;;;;;18.15;73.50;97885.73;1717825;83;21031;-42
2021/05/18 10:40:39;;;;;;;25.12;20.12;;;;;;;18.11;72.55;97871.38;1692957;83;21066;-42
2021/05/18 10:43:29;;;;;;;20.40;16.23;;;;;;;18.09;73.01;97866.19;1721949;82;21632;-42
2021/05/18 10:46:07;;;;;;;20.08;15.75;;;;;;;18.05;73.09;97871.81;1737232;82;20991;-42
2021/05/18 10:48:42;;;;;;;15.53;13.88;;;;;;;18.05;73.22;97879.27;1732613;82;21030;-42
2021/05/18 10:51:52;;;;;;;12.05;8.30;;;;;;;18.02;73.18;97885.62;1725469;82;21091;-42
2021/05/18 10:54:32;;;;;;;8.38;7.10;;;;;;;17.98;72.62;97884.98;1748153;82;21589;-41
2021/05/18 10:57:06;;;;;;;11.18;7.25;;;;;;;17.91;72.73;97892.09;1742743;82;21612;-42
2021/05/18 10:59:41;;;;;;;10.23;7.37;;;;;;;17.84;72.87;97895.06;1741072;82;20975;-41
2021/05/18 11:02:29;;;;;;;7.20;6.35;;;;;;;17.80;72.91;97912.41;1748084;82;21114;-41
2021/05/18 11:05:12;;;;;;;8.15;7.25;;;;;;;17.83;73.00;97915.46;1740627;82;21086;-41
2021/05/18 11:07:46;;;;;;;8.25;6.20;;;;;;;17.85;73.14;97913.05;1718141;83;20983;-42
2021/05/18 11:10:20;;;;;;;7.17;6.42;;;;;;;17.83;73.01;97918.20;1717982;82;20967;-41
2021/05/18 11:12:57;;;;;;;7.75;7.03;;;;;;;17.85;72.74;97919.91;1718091;83;20990;-42
2021/05/18 11:15:24;;;;;;;8.55;6.90;;;;;;;17.84;73.04;97917.77;1718247;83;21526;-42
2021/05/18 11:17:54;;;;;;;9.55;6.00;;;;;;;17.84;72.97;97919.14;1718653;82;21039;-42
2021/05/18 11:26:01;;;;;;;9.50;6.53;;;;;;;17.94;73.17;97900.80;1719440;82;20959;-41
2021/05/18 11:28:40;;;;;;;7.05;5.78;;;;;;;17.97;73.41;97893.81;1724505;82;21120;-41
2021/05/18 11:31:11;;;;;;;;;;;;;;;18.02;73.20;97891.88;1721015;82;21047;-42
2021/05/18 11:33:47;;;;;;;10.38;6.70;;;;;;;18.07;73.34;97891.91;1725818;82;20271;-42
2021/05/18 11:36:21;;;;;;;8.45;6.30;;;;;;;17.98;73.65;97889.09;1711525;82;20991;-42
2021/05/18 11:38:54;;;;;;;7.03;6.25;;;;;;;18.04;73.90;97891.44;1718637;82;21053;-42
2021/05/18 11:41:27;;;;;;;13.05;6.78;;;;;;;18.11;73.75;97890.58;1730284;82;21062;-42
2021/05/18 11:43:58;;;;;;;9.45;6.90;;;;;;;18.18;74.01;97891.72;1712687;82;20999;-42
2021/05/18 11:46:28;;;;;;;6.55;5.78;;;;;;;18.26;73.67;97899.07;1707632;82;21035;-42
2021/05/18 11:49:08;;;;;;;7.35;6.62;;;;;;;18.33;73.52;97887.09;1727073;82;21103;-41
2021/05/18 11:51:47;;;;;;;9.15;7.95;;;;;;;18.42;73.32;97894.78;1725279;82;20973;-42
2021/05/18 11:54:16;;;;;;;8.15;6.72;;;;;;;18.49;73.18;97886.91;1724817;82;21071;-41
2021/05/18 11:56:43;;;;;;;12.18;7.67;;;;;;;18.57;73.73;97887.59;1715344;82;21110;-41
2021/05/18 11:59:19;;;;;;;9.93;7.47;;;;;;;18.78;73.72;97888.02;1706289;82;21008;-42
2021/05/18 12:02:05;;;;;;;13.48;7.37;;;;;;;19.02;73.23;97881.59;1708146;82;21641;-42
2021/05/18 12:04:32;;;;;;;8.98;7.05;;;;;;;19.38;73.12;97882.30;1706514;82;21068;-42
2021/05/18 12:07:12;;;;;;;9.33;6.65;;;;;;;19.95;70.97;97883.50;1733993;82;21646;-42
2021/05/18 12:09:41;;;;;;;10.28;6.60;;;;;;;20.48;69.28;97881.81;1708238;82;21086;-42
2021/05/18 12:12:17;;;;;;;8.80;7.12;;;;;;;20.75;67.14;97881.78;1715886;82;21530;-42
2021/05/18 12:14:50;;;;;;;9.58;7.15;;;;;;;20.74;65.85;97882.23;1717954;82;20960;-42
2021/05/18 12:17:31;;;;;;;8.48;6.67;;;;;;;20.56;65.99;97890.54;1733685;82;21004;-42
2021/05/18 12:20:00;;;;;;;9.43;6.40;;;;;;;20.30;65.93;97897.75;1734219;82;21658;-42
2021/05/18 12:22:26;;;;;;;10.38;7.28;;;;;;;19.94;66.73;97903.23;1711037;82;21091;-42
2021/05/18 12:24:55;;;;;;;8.70;6.20;;;;;;;19.68;68.21;97912.95;1704448;84;21055;-42
2021/05/18 12:27:21;;;;;;;7.85;6.12;;;;;;;19.45;68.92;97924.66;1732232;82;21530;-42
2021/05/18 12:29:54;;;;;;;10.98;6.33;;;;;;;19.32;69.44;97931.44;1707335;82;21051;-42
2021/05/18 12:32:34;;;;;;;12.30;6.25;;;;;;;19.23;70.09;97928.05;1719527;82;21643;-42
2021/05/18 12:35:21;;;;;;;12.23;5.85;;;;;;;19.22;70.36;97927.88;1713553;82;21093;-41
2021/05/18 12:37:54;;;;;;;6.77;4.93;;;;;;;19.25;70.46;97927.00;1693709;83;21030;-41
2021/05/18 12:40:32;;;;;;;13.43;5.92;;;;;;;19.23;70.15;97928.05;1671791;83;21068;-41
2021/05/18 12:43:22;;;;;;;10.32;6.00;;;;;;;19.16;70.35;97939.33;1728348;82;21560;-41
2021/05/18 12:46:08;;;;;;;8.90;5.50;;;;;;;19.10;70.75;97940.52;1724645;82;23483;-41
2021/05/18 12:48:39;;;;;;;9.03;4.92;;;;;;;19.04;70.83;97938.80;1724018;82;21003;-41
2021/05/18 12:51:18;;;;;;;7.42;4.62;;;;;;;18.97;70.56;97932.98;1721317;82;20967;-41
2021/05/18 12:53:46;;;;;;;5.97;4.42;;;;;;;18.98;70.54;97932.34;1726034;82;21592;-41
2021/05/18 12:56:28;;;;;;;8.33;4.28;;;;;;;18.95;70.62;97931.88;1724838;82;21062;-41
2021/05/18 12:59:08;;;;;;;4.15;3.27;;;;;;;18.89;70.35;97930.33;1739286;82;21049;-41
2021/05/18 13:01:48;;;;;;;7.10;3.15;;;;;;;18.79;69.93;97924.62;1719194;82;21035;-42
2021/05/18 13:04:16;;;;;;;2.83;2.10;;;;;;;18.73;69.47;97920.17;1718406;82;20987;-41
2021/05/18 13:06:50;;;;;;;3.37;2.00;;;;;;;18.71;68.58;97910.23;1718334;83;20987;-41
2021/05/18 13:09:30;;;;;;;2.60;1.87;;;;;;;18.69;68.39;97898.32;1720788;82;21079;-41
2021/05/18 13:12:12;;;;;;;5.55;2.08;;;;;;;18.67;68.55;97892.53;1718176;83;20957;-41
2021/05/18 13:14:59;;;;;;;3.15;2.58;;;;;;;18.69;68.90;97890.72;1723565;82;21022;-41
2021/05/18 13:17:27;;;;;;;2.20;1.98;;;;;;;18.75;69.08;97883.41;1719081;82;21031;-42
2021/05/18 13:20:03;;;;;;;5.00;2.22;;;;;;;18.83;69.44;97874.45;1719282;82;21030;-41
2021/05/18 13:22:34;;;;;;;4.92;2.47;;;;;;;18.90;69.03;97877.55;1724820;82;20979;-41
2021/05/18 13:27:59;;;;;;;5.72;2.95;;;;;;;18.90;69.52;97882.43;1718223;83;21054;-41
2021/05/18 13:30:27;;;;;;;6.62;2.55;;;;;;;18.96;69.45;97888.11;1718309;82;20967;-41
2021/05/18 13:32:55;;;;;;;4.78;2.50;;;;;;;19.09;69.14;97888.77;1722980;82;21082;-41
2021/05/18 13:35:23;;;;;;;5.03;2.98;;;;;;;19.28;68.91;97885.47;1718442;82;21378;-41
2021/05/18 13:37:51;;;;;;;4.45;2.72;;;;;;;19.51;68.43;97879.45;1719798;83;21061;-41
2021/05/18 13:40:20;;;;;;;6.83;2.95;;;;;;;19.72;68.03;97877.22;1721467;81;20991;-42
2021/05/18 13:42:52;;;;;;;5.50;3.50;;;;;;;19.94;67.17;97876.46;1725677;83;20999;-41
2021/05/18 13:45:20;;;;;;;4.53;3.47;;;;;;;20.12;66.94;97858.45;1729517;81;21099;-41
2021/05/18 13:47:48;;;;;;;4.95;3.25;;;;;;;20.29;66.67;97856.28;1740323;81;21607;-41
2021/05/18 13:50:14;;;;;;;5.40;3.60;;;;;;;20.52;66.33;97849.41;1725656;83;21078;-41
2021/05/18 13:52:41;;;;;;;7.10;4.40;;;;;;;20.75;66.70;97854.23;1725749;83;20975;-42
2021/05/18 13:55:09;;;;;;;6.58;3.62;;;;;;;21.04;66.19;97846.78;1725819;81;21026;-42
2021/05/18 13:57:36;;;;;;;7.17;4.42;;;;;;;21.36;65.38;97844.50;1737069;81;21067;-42
2021/05/18 14:00:08;;;;;;;5.85;4.22;;;;;;;21.51;64.91;97833.69;1744454;81;20987;-42
2021/05/18 14:02:37;;;;;;;8.23;4.67;;;;;;;21.55;64.94;97837.02;1725991;81;21072;-42
2021/05/18 14:05:07;;;;;;;9.40;5.70;;;;;;;21.57;63.70;97837.33;1725317;83;21647;-42
2021/05/18 14:10:41;;;;;;;8.93;5.17;;;;;;;21.54;64.70;97833.38;1725707;83;21659;-41
2021/05/18 14:13:08;;;;;;;8.73;5.00;;;;;;;21.45;64.39;97827.28;1725597;81;20950;-42
2021/05/18 14:15:35;;;;;;;7.78;4.50;;;;;;;21.32;64.34;97821.86;1732535;81;21087;-42
2021/05/18 14:18:02;;;;;;;8.68;4.62;;;;;;;21.14;63.88;97813.85;1754918;81;21069;-41
2021/05/18 14:20:29;;;;;;;5.25;3.80;;;;;;;20.99;63.42;97812.97;1742363;81;21042;-42
2021/05/18 14:22:55;;;;;;;7.03;4.17;;;;;;;20.75;64.52;97817.66;1733412;81;21070;-41
2021/05/18 14:25:22;;;;;;;8.00;3.70;;;;;;;20.55;65.03;97820.94;1725826;83;21098;-41
2021/05/18 14:27:49;;;;;;;7.97;3.70;;;;;;;20.45;65.92;97825.55;1752858;81;21091;-42
2021/05/18 14:30:17;;;;;;;6.28;3.65;;;;;;;20.39;65.66;97819.90;1755501;81;21555;-42
2021/05/18 14:32:44;;;;;;;6.75;4.45;;;;;;;20.37;66.32;97824.52;1749036;81;21030;-42
2021/05/18 14:35:13;;;;;;;8.25;4.10;;;;;;;20.29;66.20;97824.62;1722508;83;21003;-42
2021/05/18 14:37:41;;;;;;;4.70;3.47;;;;;;;20.22;66.58;97824.96;1734862;82;21082;-41
2021/05/18 14:40:26;;;;;;;4.58;3.33;;;;;;;20.16;66.12;97826.80;1745897;82;21064;-42
2021/05/18 14:42:52;;;;;;;6.80;3.83;;;;;;;20.10;66.13;97830.61;1723770;82;21887;-41
2021/05/18 14:45:17;;;;;;;6.42;3.58;;;;;;;20.06;66.73;97828.03;1722237;82;21122;-41
2021/05/18 14:55:55;;;;;;;4.50;1.60;;;;;;;19.70;60.14;97827.43;1745318;82;21011;-41
2021/05/18 14:58:23;;;;;;;2.45;1.65;;;;;;;19.51;59.81;97829.37;1718056;82;20944;-41
2021/05/18 15:00:51;;;;;;;3.80;2.05;;;;;;;19.35;60.82;97827.49;1692283;83;21572;-41
2021/05/18 15:03:18;;;;;;;2.95;1.85;;;;;;;19.27;61.22;97825.62;1718265;83;21589;-41
2021/05/18 15:05:45;;;;;;;3.77;1.90;;;;;;;19.27;62.00;97818.77;1718126;83;21709;-41
2021/05/18 15:08:12;;;;;;;2.47;2.12;;;;;;;19.36;62.39;97813.91;1729927;80;21070;-41
2021/05/18 15:10:40;;;;;;;3.90;2.10;;;;;;;19.48;61.37;97808.30;1745393;82;21051;-41
2021/05/18 15:13:09;;;;;;;3.72;2.22;;;;;;;19.62;62.01;97806.94;1715682;82;21117;-41
2021/05/18 15:15:37;;;;;;;2.50;1.80;;;;;;;19.76;61.43;97802.81;1729050;82;21047;-41
2021/05/18 15:18:05;;;;;;;4.25;2.33;;;;;;;19.92;61.72;97796.41;1747625;82;21118;-41
2021/05/18 15:20:32;;;;;;;3.10;2.00;;;;;;;20.16;60.83;97791.64;1734014;82;20999;-41
2021/05/18 15:22:58;;;;;;;5.10;2.15;;;;;;;20.27;59.31;97787.80;1727428;82;21042;-42
2021/05/18 15:25:25;;;;;;;5.55;2.20;;;;;;;20.33;59.25;97790.12;1747714;82;21632;-41
2021/05/18 15:27:53;;;;;;;3.12;2.20;;;;;;;20.33;59.47;97786.73;1744144;82;21006;-41
2021/05/18 15:30:20;;;;;;;4.37;2.22;;;;;;;20.27;59.39;97791.31;1720948;82;21092;-41
2021/05/18 15:32:46;;;;;;;3.25;1.85;;;;;;;20.22;59.92;97795.30;1723961;82;21636;-41
2021/05/18 15:35:13;;;;;;;3.83;2.33;;;;;;;20.14;60.67;97797.59;1731958;82;20995;-41
2021/05/18 15:37:42;;;;;;;5.42;2.10;;;;;;;20.07;60.83;97797.16;1721480;82;21015;-41
2021/05/18 15:40:11;;;;;;;4.55;2.30;;;;;;;19.94;61.18;97793.94;1718892;82;20986;-41
2021/05/18 15:42:39;;;;;;;3.12;2.20;;;;;;;19.79;61.93;97799.17;1725047;82;21078;-41
2021/05/18 15:45:08;;;;;;;2.60;2.37;;;;;;;19.60;62.91;97803.90;1747243;82;20979;-41
2021/05/18 15:47:36;;;;;;;2.17;1.98;;;;;;;19.45;63.48;97800.98;1748314;82;21972;-42
2021/05/18 15:50:07;;;;;;;4.08;2.42;;;;;;;19.37;64.25;97801.68;1748071;82;20956;-42
2021/05/18 15:52:36;;;;;;;3.58;2.40;;;;;;;19.33;64.56;97796.34;1747833;82;21091;-41
2021/05/18 15:55:04;;;;;;;3.62;2.22;;;;;;;19.25;64.23;97803.36;1679829;85;21143;-41
2021/05/18 15:57:34;;;;;;;3.22;2.50;;;;;;;19.12;64.13;97794.48;1727228;82;21624;-41
2021/05/18 16:00:03;;;;;;;3.05;2.35;;;;;;;19.04;64.10;97787.73;1722629;82;21632;-42
2021/05/18 16:02:32;;;;;;;3.10;2.00;;;;;;;18.97;64.24;97786.05;1724854;82;21054;-41
2021/05/18 16:04:59;;;;;;;3.42;2.12;;;;;;;18.93;64.47;97784.63;1726021;82;21882;-41
2021/05/18 16:07:27;;;;;;;2.72;2.45;;;;;;;18.87;64.83;97782.34;1736205;82;21685;-41
2021/05/18 16:09:54;;;;;;;4.53;2.22;;;;;;;18.81;64.97;97778.05;1728291;82;21053;-41
2021/05/18 16:12:21;;;;;;;3.30;2.50;;;;;;;18.72;65.34;97773.91;1718517;83;20972;-41
2021/05/18 16:14:49;;;;;;;3.50;2.45;;;;;;;18.69;65.81;97766.55;1746123;82;21023;-41
2021/05/18 16:17:20;;;;;;;4.17;2.85;;;;;;;18.70;65.85;97772.81;1724899;82;21034;-41
2021/05/18 16:27:31;;;;;;;4.05;2.77;;;;;;;18.50;66.97;97774.53;1719153;82;21027;-41
2021/05/18 16:29:58;;;;;;;6.42;2.80;;;;;;;18.48;67.18;97768.14;1718627;83;21587;-41
2021/05/18 16:32:25;;;;;;;5.00;2.90;;;;;;;18.51;67.53;97764.48;1720923;82;21058;-41
2021/05/18 16:34:54;;;;;;;5.12;3.25;;;;;;;18.50;67.63;97765.69;1747347;82;21874;-41
2021/05/18 16:37:20;;;;;;;4.05;2.67;;;;;;;18.45;67.61;97766.27;1748214;82;20980;-41
2021/05/18 16:40:17;;;;;;;4.15;3.15;;;;;;;18.44;67.80;97768.88;1734951;82;21019;-41
2021/05/18 16:42:44;;;;;;;5.53;3.35;;;;;;;18.39;67.92;97768.09;1745653;82;21023;-41